sensor_id;sensor_type;location;lat;lon;timestamp;temperature;humidity
65584;DHT22;62116;43.582;1.470;2022-12-07T00:01:38;9.65;71.63
65584;DHT22;62116;43.582;1.470;2022-12-07T00:04:04;9.62;72.16
65584;DHT22;62116;43.582;1.470;2022-12-07T00:06:35;9.62;72.57
65584;DHT22;62116;43.582;1.470;2022-12-07T00:09:02;9.62;71.56
65584;DHT22;62116;43.582;1.470;2022-12-07T00:11:27;9.65;71.97
65584;DHT22;62116;43.582;1.470;2022-12-07T00:13:54;9.64;72.12
65584;DHT22;62116;43.582;1.470;2022-12-07T00:16:22;9.58;71.87
65584;DHT22;62116;43.582;1.470;2022-12-07T00:18:48;9.60;72.19
65584;DHT22;62116;43.582;1.470;2022-12-07T00:21:29;9.65;72.40
65584;DHT22;62116;43.582;1.470;2022-12-07T00:23:55;9.60;73.34
65584;DHT22;62116;43.582;1.470;2022-12-07T00:26:26;9.55;73.46
65584;DHT22;62116;43.582;1.470;2022-12-07T00:28:54;9.52;73.05
65584;DHT22;62116;43.582;1.470;2022-12-07T00:31:23;9.54;72.99
65584;DHT22;62116;43.582;1.470;2022-12-07T00:33:49;9.52;72.86
65584;DHT22;62116;43.582;1.470;2022-12-07T00:36:17;9.57;73.00
65584;DHT22;62116;43.582;1.470;2022-12-07T00:38:43;9.55;72.84
65584;DHT22;62116;43.582;1.470;2022-12-07T00:41:14;9.52;73.23
65584;DHT22;62116;43.582;1.470;2022-12-07T00:43:41;9.52;73.71
65584;DHT22;62116;43.582;1.470;2022-12-07T00:46:07;9.52;74.10
65584;DHT22;62116;43.582;1.470;2022-12-07T00:48:32;9.55;74.00
65584;DHT22;62116;43.582;1.470;2022-12-07T00:50:58;9.54;73.62
65584;DHT22;62116;43.582;1.470;2022-12-07T00:53:25;9.51;73.66
65584;DHT22;62116;43.582;1.470;2022-12-07T00:55:51;9.54;73.89
65584;DHT22;62116;43.582;1.470;2022-12-07T00:58:18;9.50;74.30
65584;DHT22;62116;43.582;1.470;2022-12-07T01:00:44;9.50;74.50
65584;DHT22;62116;43.582;1.470;2022-12-07T01:03:11;9.48;74.57
65584;DHT22;62116;43.582;1.470;2022-12-07T01:05:37;9.54;73.96
65584;DHT22;62116;43.582;1.470;2022-12-07T01:08:02;9.51;74.26
65584;DHT22;62116;43.582;1.470;2022-12-07T01:10:28;9.50;74.10
65584;DHT22;62116;43.582;1.470;2022-12-07T01:12:55;9.47;74.45
65584;DHT22;62116;43.582;1.470;2022-12-07T01:15:22;9.44;74.38
65584;DHT22;62116;43.582;1.470;2022-12-07T01:17:47;9.48;74.20
65584;DHT22;62116;43.582;1.470;2022-12-07T01:20:13;9.48;74.67
65584;DHT22;62116;43.582;1.470;2022-12-07T01:22:41;9.48;74.95
65584;DHT22;62116;43.582;1.470;2022-12-07T01:25:08;9.48;75.05
65584;DHT22;62116;43.582;1.470;2022-12-07T01:27:35;9.48;74.56
65584;DHT22;62116;43.582;1.470;2022-12-07T01:30:02;9.46;74.65
65584;DHT22;62116;43.582;1.470;2022-12-07T01:32:28;9.46;74.97
65584;DHT22;62116;43.582;1.470;2022-12-07T01:34:54;9.47;74.82
65584;DHT22;62116;43.582;1.470;2022-12-07T01:37:19;9.51;74.48
65584;DHT22;62116;43.582;1.470;2022-12-07T01:39:48;9.55;73.94
65584;DHT22;62116;43.582;1.470;2022-12-07T01:42:13;9.48;74.20
65584;DHT22;62116;43.582;1.470;2022-12-07T01:47:44;9.44;74.73
65584;DHT22;62116;43.582;1.470;2022-12-07T01:50:11;9.44;75.04
65584;DHT22;62116;43.582;1.470;2022-12-07T01:52:37;9.44;74.64
65584;DHT22;62116;43.582;1.470;2022-12-07T01:55:07;9.44;73.78
65584;DHT22;62116;43.582;1.470;2022-12-07T01:57:35;9.41;73.95
65584;DHT22;62116;43.582;1.470;2022-12-07T02:00:04;9.41;74.08
65584;DHT22;62116;43.582;1.470;2022-12-07T02:02:33;9.41;74.22
65584;DHT22;62116;43.582;1.470;2022-12-07T02:05:00;9.41;74.38
65584;DHT22;62116;43.582;1.470;2022-12-07T02:07:26;9.37;74.40
65584;DHT22;62116;43.582;1.470;2022-12-07T02:09:52;9.38;74.38
65584;DHT22;62116;43.582;1.470;2022-12-07T02:12:19;9.41;73.71
65584;DHT22;62116;43.582;1.470;2022-12-07T02:14:44;9.38;73.62
65584;DHT22;62116;43.582;1.470;2022-12-07T02:17:42;9.36;73.75
65584;DHT22;62116;43.582;1.470;2022-12-07T02:20:39;9.37;74.60
65584;DHT22;62116;43.582;1.470;2022-12-07T02:23:27;9.38;73.99
65584;DHT22;62116;43.582;1.470;2022-12-07T02:31:37;9.36;73.40
65584;DHT22;62116;43.582;1.470;2022-12-07T02:34:18;9.31;73.42
65584;DHT22;62116;43.582;1.470;2022-12-07T02:36:46;9.31;73.65
65584;DHT22;62116;43.582;1.470;2022-12-07T02:39:26;9.31;73.03
65584;DHT22;62116;43.582;1.470;2022-12-07T02:41:58;9.30;73.47
65584;DHT22;62116;43.582;1.470;2022-12-07T02:44:27;9.33;73.69
65584;DHT22;62116;43.582;1.470;2022-12-07T02:47:06;9.27;73.68
65584;DHT22;62116;43.582;1.470;2022-12-07T02:49:32;9.28;73.31
65584;DHT22;62116;43.582;1.470;2022-12-07T02:51:58;9.28;73.23
65584;DHT22;62116;43.582;1.470;2022-12-07T02:54:23;9.26;73.63
65584;DHT22;62116;43.582;1.470;2022-12-07T02:57:22;9.26;73.45
65584;DHT22;62116;43.582;1.470;2022-12-07T03:00:18;9.28;73.96
65584;DHT22;62116;43.582;1.470;2022-12-07T03:02:59;9.31;74.14
65584;DHT22;62116;43.582;1.470;2022-12-07T03:05:42;9.34;74.03
65584;DHT22;62116;43.582;1.470;2022-12-07T03:11:05;9.28;74.33
65584;DHT22;62116;43.582;1.470;2022-12-07T03:13:41;9.31;74.21
65584;DHT22;62116;43.582;1.470;2022-12-07T03:16:17;9.28;74.47
65584;DHT22;62116;43.582;1.470;2022-12-07T03:18:51;9.28;74.51
65584;DHT22;62116;43.582;1.470;2022-12-07T03:21:21;9.27;74.42
65584;DHT22;62116;43.582;1.470;2022-12-07T03:23:51;9.28;74.30
65584;DHT22;62116;43.582;1.470;2022-12-07T03:26:19;9.28;74.61
65584;DHT22;62116;43.582;1.470;2022-12-07T03:28:51;9.30;74.82
65584;DHT22;62116;43.582;1.470;2022-12-07T03:33:49;9.28;75.25
65584;DHT22;62116;43.582;1.470;2022-12-07T03:36:39;9.28;75.52
65584;DHT22;62116;43.582;1.470;2022-12-07T03:41:40;9.30;76.07
65584;DHT22;62116;43.582;1.470;2022-12-07T03:44:06;9.30;76.30
65584;DHT22;62116;43.582;1.470;2022-12-07T03:46:42;9.36;75.95
65584;DHT22;62116;43.582;1.470;2022-12-07T03:49:29;9.34;75.95
65584;DHT22;62116;43.582;1.470;2022-12-07T03:55:04;9.33;76.49
65584;DHT22;62116;43.582;1.470;2022-12-07T03:57:33;9.36;76.36
65584;DHT22;62116;43.582;1.470;2022-12-07T03:59:59;9.36;76.69
65584;DHT22;62116;43.582;1.470;2022-12-07T04:02:26;9.37;76.33
65584;DHT22;62116;43.582;1.470;2022-12-07T04:04:52;9.37;76.35
65584;DHT22;62116;43.582;1.470;2022-12-07T04:07:18;9.36;76.52
65584;DHT22;62116;43.582;1.470;2022-12-07T04:09:44;9.36;76.67
65584;DHT22;62116;43.582;1.470;2022-12-07T04:12:10;9.40;76.48
65584;DHT22;62116;43.582;1.470;2022-12-07T04:14:35;9.38;76.67
65584;DHT22;62116;43.582;1.470;2022-12-07T04:17:00;9.31;77.07
65584;DHT22;62116;43.582;1.470;2022-12-07T04:19:28;9.33;77.16
65584;DHT22;62116;43.582;1.470;2022-12-07T04:21:55;9.30;77.36
65584;DHT22;62116;43.582;1.470;2022-12-07T04:24:21;9.30;77.17
65584;DHT22;62116;43.582;1.470;2022-12-07T04:26:47;9.28;77.31
65584;DHT22;62116;43.582;1.470;2022-12-07T04:29:13;9.36;77.03
65584;DHT22;62116;43.582;1.470;2022-12-07T04:31:39;9.37;76.71
65584;DHT22;62116;43.582;1.470;2022-12-07T04:34:05;9.31;77.17
65584;DHT22;62116;43.582;1.470;2022-12-07T04:36:30;9.30;77.33
65584;DHT22;62116;43.582;1.470;2022-12-07T04:38:56;9.31;77.21
65584;DHT22;62116;43.582;1.470;2022-12-07T04:41:22;9.31;77.22
65584;DHT22;62116;43.582;1.470;2022-12-07T04:44:02;9.31;77.30
65584;DHT22;62116;43.582;1.470;2022-12-07T04:46:30;9.31;77.21
65584;DHT22;62116;43.582;1.470;2022-12-07T04:48:57;9.28;77.36
65584;DHT22;62116;43.582;1.470;2022-12-07T04:51:25;9.27;77.41
65584;DHT22;62116;43.582;1.470;2022-12-07T04:53:52;9.28;77.44
65584;DHT22;62116;43.582;1.470;2022-12-07T04:56:18;9.28;77.63
65584;DHT22;62116;43.582;1.470;2022-12-07T04:58:45;9.28;77.51
65584;DHT22;62116;43.582;1.470;2022-12-07T05:01:11;9.28;77.65
65584;DHT22;62116;43.582;1.470;2022-12-07T05:03:39;9.28;77.80
65584;DHT22;62116;43.582;1.470;2022-12-07T05:06:05;9.27;77.76
65584;DHT22;62116;43.582;1.470;2022-12-07T05:08:32;9.31;77.85
65584;DHT22;62116;43.582;1.470;2022-12-07T05:10:58;9.31;77.68
65584;DHT22;62116;43.582;1.470;2022-12-07T05:13:23;9.33;77.58
65584;DHT22;62116;43.582;1.470;2022-12-07T05:15:49;9.31;77.71
65584;DHT22;62116;43.582;1.470;2022-12-07T05:18:15;9.27;78.12
65584;DHT22;62116;43.582;1.470;2022-12-07T05:20:41;9.27;77.92
65584;DHT22;62116;43.582;1.470;2022-12-07T05:23:10;9.31;77.76
65584;DHT22;62116;43.582;1.470;2022-12-07T05:25:43;9.33;77.90
65584;DHT22;62116;43.582;1.470;2022-12-07T05:28:09;9.30;78.10
65584;DHT22;62116;43.582;1.470;2022-12-07T05:30:34;9.30;77.88
65584;DHT22;62116;43.582;1.470;2022-12-07T05:32:59;9.31;78.03
65584;DHT22;62116;43.582;1.470;2022-12-07T05:35:25;9.30;77.60
65584;DHT22;62116;43.582;1.470;2022-12-07T05:37:50;9.30;77.98
65584;DHT22;62116;43.582;1.470;2022-12-07T05:40:16;9.31;78.08
65584;DHT22;62116;43.582;1.470;2022-12-07T05:42:42;9.33;77.59
65584;DHT22;62116;43.582;1.470;2022-12-07T05:45:09;9.31;77.42
65584;DHT22;62116;43.582;1.470;2022-12-07T05:47:34;9.31;77.51
65584;DHT22;62116;43.582;1.470;2022-12-07T05:50:00;9.33;77.75
65584;DHT22;62116;43.582;1.470;2022-12-07T05:52:26;9.28;77.89
65584;DHT22;62116;43.582;1.470;2022-12-07T05:54:52;9.30;77.85
65584;DHT22;62116;43.582;1.470;2022-12-07T05:57:17;9.30;77.94
65584;DHT22;62116;43.582;1.470;2022-12-07T05:59:43;9.30;77.80
65584;DHT22;62116;43.582;1.470;2022-12-07T06:02:11;9.31;78.07
65584;DHT22;62116;43.582;1.470;2022-12-07T06:04:39;9.31;77.78
65584;DHT22;62116;43.582;1.470;2022-12-07T06:07:05;9.34;77.81
65584;DHT22;62116;43.582;1.470;2022-12-07T06:09:31;9.33;77.85
65584;DHT22;62116;43.582;1.470;2022-12-07T06:11:58;9.34;77.60
65584;DHT22;62116;43.582;1.470;2022-12-07T06:14:42;9.36;77.89
65584;DHT22;62116;43.582;1.470;2022-12-07T06:17:08;9.33;77.96
65584;DHT22;62116;43.582;1.470;2022-12-07T06:19:33;9.31;77.98
65584;DHT22;62116;43.582;1.470;2022-12-07T06:21:59;9.33;77.79
65584;DHT22;62116;43.582;1.470;2022-12-07T06:24:25;9.33;77.87
65584;DHT22;62116;43.582;1.470;2022-12-07T06:26:50;9.30;77.91
65584;DHT22;62116;43.582;1.470;2022-12-07T06:29:16;9.27;77.87
65584;DHT22;62116;43.582;1.470;2022-12-07T06:31:42;9.33;77.89
65584;DHT22;62116;43.582;1.470;2022-12-07T06:34:13;9.33;77.77
65584;DHT22;62116;43.582;1.470;2022-12-07T06:36:39;9.33;77.93
65584;DHT22;62116;43.582;1.470;2022-12-07T06:39:05;9.31;77.75
65584;DHT22;62116;43.582;1.470;2022-12-07T06:41:31;9.33;78.03
65584;DHT22;62116;43.582;1.470;2022-12-07T06:43:56;9.27;78.09
65584;DHT22;62116;43.582;1.470;2022-12-07T06:46:22;9.26;78.16
65584;DHT22;62116;43.582;1.470;2022-12-07T06:48:48;9.30;77.98
65584;DHT22;62116;43.582;1.470;2022-12-07T06:51:13;9.28;78.25
65584;DHT22;62116;43.582;1.470;2022-12-07T06:53:39;9.33;78.09
65584;DHT22;62116;43.582;1.470;2022-12-07T06:56:04;9.28;78.41
65584;DHT22;62116;43.582;1.470;2022-12-07T06:58:30;9.30;78.37
65584;DHT22;62116;43.582;1.470;2022-12-07T07:00:56;9.26;78.50
65584;DHT22;62116;43.582;1.470;2022-12-07T07:03:21;9.28;78.51
65584;DHT22;62116;43.582;1.470;2022-12-07T07:05:47;9.27;78.50
65584;DHT22;62116;43.582;1.470;2022-12-07T07:08:12;9.23;78.66
65584;DHT22;62116;43.582;1.470;2022-12-07T07:10:38;9.27;78.56
65584;DHT22;62116;43.582;1.470;2022-12-07T07:13:04;9.26;78.72
65584;DHT22;62116;43.582;1.470;2022-12-07T07:15:30;9.24;78.86
65584;DHT22;62116;43.582;1.470;2022-12-07T07:17:55;9.27;78.89
65584;DHT22;62116;43.582;1.470;2022-12-07T07:20:21;9.27;79.19
65584;DHT22;62116;43.582;1.470;2022-12-07T07:22:47;9.27;79.03
65584;DHT22;62116;43.582;1.470;2022-12-07T07:25:13;9.28;79.28
65584;DHT22;62116;43.582;1.470;2022-12-07T07:27:38;9.28;79.19
65584;DHT22;62116;43.582;1.470;2022-12-07T07:30:04;9.26;79.39
65584;DHT22;62116;43.582;1.470;2022-12-07T07:32:30;9.28;79.24
65584;DHT22;62116;43.582;1.470;2022-12-07T07:34:56;9.28;79.21
65584;DHT22;62116;43.582;1.470;2022-12-07T07:37:21;9.34;79.13
65584;DHT22;62116;43.582;1.470;2022-12-07T07:39:46;9.33;79.32
65584;DHT22;62116;43.582;1.470;2022-12-07T07:42:12;9.34;79.62
65584;DHT22;62116;43.582;1.470;2022-12-07T07:44:37;9.33;79.82
65584;DHT22;62116;43.582;1.470;2022-12-07T07:47:03;9.36;79.78
65584;DHT22;62116;43.582;1.470;2022-12-07T07:49:29;9.40;79.64
65584;DHT22;62116;43.582;1.470;2022-12-07T07:51:54;9.40;79.63
65584;DHT22;62116;43.582;1.470;2022-12-07T07:54:19;9.41;79.42
65584;DHT22;62116;43.582;1.470;2022-12-07T07:56:45;9.40;79.49
65584;DHT22;62116;43.582;1.470;2022-12-07T07:59:10;9.41;79.82
65584;DHT22;62116;43.582;1.470;2022-12-07T08:01:35;9.44;79.54
65584;DHT22;62116;43.582;1.470;2022-12-07T08:04:01;9.47;79.31
65584;DHT22;62116;43.582;1.470;2022-12-07T08:06:26;9.52;79.17
65584;DHT22;62116;43.582;1.470;2022-12-07T08:08:52;9.54;79.07
65584;DHT22;62116;43.582;1.470;2022-12-07T08:11:18;9.57;78.97
65584;DHT22;62116;43.582;1.470;2022-12-07T08:13:45;9.54;79.38
65584;DHT22;62116;43.582;1.470;2022-12-07T08:16:12;9.61;78.77
65584;DHT22;62116;43.582;1.470;2022-12-07T08:18:40;9.65;78.54
65584;DHT22;62116;43.582;1.470;2022-12-07T08:21:06;9.65;78.55
65584;DHT22;62116;43.582;1.470;2022-12-07T08:23:33;9.65;78.90
65584;DHT22;62116;43.582;1.470;2022-12-07T08:26:07;9.73;78.38
65584;DHT22;62116;43.582;1.470;2022-12-07T08:28:33;9.71;78.37
65584;DHT22;62116;43.582;1.470;2022-12-07T08:31:00;9.80;77.95
65584;DHT22;62116;43.582;1.470;2022-12-07T08:33:26;9.78;78.25
65584;DHT22;62116;43.582;1.470;2022-12-07T08:35:51;9.81;78.34
65584;DHT22;62116;43.582;1.470;2022-12-07T08:38:16;9.88;77.60
65584;DHT22;62116;43.582;1.470;2022-12-07T08:40:42;9.91;77.12
65584;DHT22;62116;43.582;1.470;2022-12-07T08:43:07;9.88;77.47
65584;DHT22;62116;43.582;1.470;2022-12-07T08:45:33;9.88;77.57
65584;DHT22;62116;43.582;1.470;2022-12-07T08:48:06;9.94;77.50
65584;DHT22;62116;43.582;1.470;2022-12-07T08:50:34;10.01;77.06
65584;DHT22;62116;43.582;1.470;2022-12-07T08:53:00;10.14;76.96
65584;DHT22;62116;43.582;1.470;2022-12-07T08:55:27;10.26;76.51
65584;DHT22;62116;43.582;1.470;2022-12-07T08:57:53;10.38;76.33
65584;DHT22;62116;43.582;1.470;2022-12-07T09:00:18;10.38;76.10
65584;DHT22;62116;43.582;1.470;2022-12-07T09:02:44;10.49;75.33
65584;DHT22;62116;43.582;1.470;2022-12-07T09:05:11;10.56;74.42
65584;DHT22;62116;43.582;1.470;2022-12-07T09:07:37;10.63;74.04
65584;DHT22;62116;43.582;1.470;2022-12-07T09:10:04;10.75;73.77
65584;DHT22;62116;43.582;1.470;2022-12-07T09:12:29;10.87;72.65
65584;DHT22;62116;43.582;1.470;2022-12-07T09:14:55;11.24;71.91
65584;DHT22;62116;43.582;1.470;2022-12-07T09:17:21;11.28;71.30
65584;DHT22;62116;43.582;1.470;2022-12-07T09:19:46;11.40;71.09
65584;DHT22;62116;43.582;1.470;2022-12-07T09:22:12;11.58;70.43
65584;DHT22;62116;43.582;1.470;2022-12-07T09:24:37;11.70;69.47
65584;DHT22;62116;43.582;1.470;2022-12-07T09:27:02;11.77;68.85
65584;DHT22;62116;43.582;1.470;2022-12-07T09:29:28;11.88;68.39
65584;DHT22;62116;43.582;1.470;2022-12-07T09:31:53;12.33;68.02
65584;DHT22;62116;43.582;1.470;2022-12-07T09:34:19;12.45;67.25
65584;DHT22;62116;43.582;1.470;2022-12-07T09:36:45;12.64;66.00
65584;DHT22;62116;43.582;1.470;2022-12-07T09:39:11;12.96;65.45
65584;DHT22;62116;43.582;1.470;2022-12-07T09:41:41;13.30;64.83
65584;DHT22;62116;43.582;1.470;2022-12-07T09:44:11;13.65;63.13
65584;DHT22;62116;43.582;1.470;2022-12-07T09:46:40;13.90;61.89
65584;DHT22;62116;43.582;1.470;2022-12-07T09:49:12;14.15;60.05
65584;DHT22;62116;43.582;1.470;2022-12-07T09:51:38;14.46;58.67
65584;DHT22;62116;43.582;1.470;2022-12-07T09:54:03;14.66;58.12
65584;DHT22;62116;43.582;1.470;2022-12-07T09:56:29;14.87;56.46
65584;DHT22;62116;43.582;1.470;2022-12-07T09:59:01;15.15;56.28
65584;DHT22;62116;43.582;1.470;2022-12-07T10:01:30;15.35;55.40
65584;DHT22;62116;43.582;1.470;2022-12-07T10:04:08;15.51;54.38
65584;DHT22;62116;43.582;1.470;2022-12-07T10:06:34;15.72;53.96
65584;DHT22;62116;43.582;1.470;2022-12-07T10:09:00;15.86;52.76
65584;DHT22;62116;43.582;1.470;2022-12-07T10:11:25;16.09;51.43
65584;DHT22;62116;43.582;1.470;2022-12-07T10:13:52;16.09;51.64
65584;DHT22;62116;43.582;1.470;2022-12-07T10:18:51;16.40;51.02
65584;DHT22;62116;43.582;1.470;2022-12-07T10:21:20;16.50;51.24
65584;DHT22;62116;43.582;1.470;2022-12-07T10:26:54;16.68;49.80
65584;DHT22;62116;43.582;1.470;2022-12-07T10:29:31;16.77;49.69
65584;DHT22;62116;43.582;1.470;2022-12-07T10:32:23;16.74;49.67
65584;DHT22;62116;43.582;1.470;2022-12-07T10:34:51;16.76;49.56
65584;DHT22;62116;43.582;1.470;2022-12-07T10:37:40;16.87;48.42
65584;DHT22;62116;43.582;1.470;2022-12-07T10:40:24;16.83;48.73
65584;DHT22;62116;43.582;1.470;2022-12-07T10:43:21;16.76;47.20
65584;DHT22;62116;43.582;1.470;2022-12-07T10:46:13;16.73;49.03
65584;DHT22;62116;43.582;1.470;2022-12-07T10:51:46;16.76;49.83
65584;DHT22;62116;43.582;1.470;2022-12-07T11:11:00;16.44;48.65
65584;DHT22;62116;43.582;1.470;2022-12-07T11:13:44;16.43;48.71
65584;DHT22;62116;43.582;1.470;2022-12-07T11:27:37;16.01;48.87
65584;DHT22;62116;43.582;1.470;2022-12-07T11:30:16;15.88;49.36
65584;DHT22;62116;43.582;1.470;2022-12-07T11:38:17;15.75;48.27
65584;DHT22;62116;43.582;1.470;2022-12-07T11:40:49;15.57;49.36
65584;DHT22;62116;43.582;1.470;2022-12-07T11:43:26;15.55;49.90
65584;DHT22;62116;43.582;1.470;2022-12-07T11:48:35;15.49;49.56
65584;DHT22;62116;43.582;1.470;2022-12-07T11:51:07;15.48;49.68
65584;DHT22;62116;43.582;1.470;2022-12-07T11:53:59;15.42;48.90
65584;DHT22;62116;43.582;1.470;2022-12-07T11:56:27;15.34;48.81
65584;DHT22;62116;43.582;1.470;2022-12-07T11:59:19;15.24;48.96
65584;DHT22;62116;43.582;1.470;2022-12-07T12:01:58;15.21;49.42
65584;DHT22;62116;43.582;1.470;2022-12-07T12:04:49;15.10;49.16
65584;DHT22;62116;43.582;1.470;2022-12-07T12:07:21;15.04;49.56
65584;DHT22;62116;43.582;1.470;2022-12-07T12:09:54;14.97;50.07
65584;DHT22;62116;43.582;1.470;2022-12-07T12:18:00;14.86;50.70
65584;DHT22;62116;43.582;1.470;2022-12-07T12:20:45;14.84;51.16
65584;DHT22;62116;43.582;1.470;2022-12-07T12:23:14;14.83;51.34
65584;DHT22;62116;43.582;1.470;2022-12-07T12:25:47;14.72;50.90
65584;DHT22;62116;43.582;1.470;2022-12-07T12:28:38;14.69;51.72
65584;DHT22;62116;43.582;1.470;2022-12-07T12:31:16;14.64;51.81
65584;DHT22;62116;43.582;1.470;2022-12-07T12:33:59;14.52;52.20
65584;DHT22;62116;43.582;1.470;2022-12-07T12:46:56;14.36;53.76
65584;DHT22;62116;43.582;1.470;2022-12-07T12:57:00;14.22;52.73
65584;DHT22;62116;43.582;1.470;2022-12-07T12:59:42;14.20;53.39
65584;DHT22;62116;43.582;1.470;2022-12-07T13:13:34;14.02;54.34
65584;DHT22;62116;43.582;1.470;2022-12-07T13:15:54;14.02;54.49
65584;DHT22;62116;43.582;1.470;2022-12-07T13:29:16;13.90;54.62
65584;DHT22;62116;43.582;1.470;2022-12-07T13:31:45;13.88;54.85
65584;DHT22;62116;43.582;1.470;2022-12-07T13:36:55;13.86;55.61
65584;DHT22;62116;43.582;1.470;2022-12-07T13:39:23;13.83;56.35
65584;DHT22;62116;43.582;1.470;2022-12-07T13:42:06;13.81;55.83
65584;DHT22;62116;43.582;1.470;2022-12-07T13:44:34;13.79;55.21
65584;DHT22;62116;43.582;1.470;2022-12-07T13:47:07;13.77;54.33
65584;DHT22;62116;43.582;1.470;2022-12-07T13:49:46;13.78;54.56
65584;DHT22;62116;43.582;1.470;2022-12-07T13:52:16;13.75;54.96
65584;DHT22;62116;43.582;1.470;2022-12-07T13:57:24;13.75;54.36
65584;DHT22;62116;43.582;1.470;2022-12-07T13:59:50;13.68;54.64
65584;DHT22;62116;43.582;1.470;2022-12-07T14:02:31;13.69;55.67
65584;DHT22;62116;43.582;1.470;2022-12-07T14:07:52;13.67;56.13
65584;DHT22;62116;43.582;1.470;2022-12-07T14:10:25;13.64;55.55
65584;DHT22;62116;43.582;1.470;2022-12-07T14:12:51;13.62;55.50
65584;DHT22;62116;43.582;1.470;2022-12-07T14:15:22;13.62;55.67
65584;DHT22;62116;43.582;1.470;2022-12-07T14:17:53;13.61;56.11
65584;DHT22;62116;43.582;1.470;2022-12-07T14:20:32;13.61;56.34
65584;DHT22;62116;43.582;1.470;2022-12-07T14:22:58;13.55;56.84
65584;DHT22;62116;43.582;1.470;2022-12-07T14:25:26;13.57;56.55
65584;DHT22;62116;43.582;1.470;2022-12-07T14:27:59;13.53;56.55
65584;DHT22;62116;43.582;1.470;2022-12-07T14:30:31;13.54;56.93
65584;DHT22;62116;43.582;1.470;2022-12-07T14:33:02;13.55;57.53
65584;DHT22;62116;43.582;1.470;2022-12-07T14:35:28;13.53;57.65
65584;DHT22;62116;43.582;1.470;2022-12-07T14:37:54;13.50;57.53
65584;DHT22;62116;43.582;1.470;2022-12-07T14:40:22;13.48;57.64
65584;DHT22;62116;43.582;1.470;2022-12-07T14:42:51;13.45;58.11
65584;DHT22;62116;43.582;1.470;2022-12-07T14:45:22;13.44;58.23
65584;DHT22;62116;43.582;1.470;2022-12-07T14:47:48;13.44;58.21
65584;DHT22;62116;43.582;1.470;2022-12-07T14:50:16;13.43;58.33
65584;DHT22;62116;43.582;1.470;2022-12-07T14:52:48;13.38;58.46
65584;DHT22;62116;43.582;1.470;2022-12-07T14:57:51;13.40;57.79
65584;DHT22;62116;43.582;1.470;2022-12-07T15:00:16;13.37;57.87
65584;DHT22;62116;43.582;1.470;2022-12-07T15:02:43;13.34;58.10
65584;DHT22;62116;43.582;1.470;2022-12-07T15:05:09;13.38;58.23
65584;DHT22;62116;43.582;1.470;2022-12-07T15:07:34;13.34;58.45
65584;DHT22;62116;43.582;1.470;2022-12-07T15:10:00;13.31;58.56
65584;DHT22;62116;43.582;1.470;2022-12-07T15:12:25;13.30;58.96
65584;DHT22;62116;43.582;1.470;2022-12-07T15:14:52;13.30;59.16
65584;DHT22;62116;43.582;1.470;2022-12-07T15:17:17;13.27;59.11
65584;DHT22;62116;43.582;1.470;2022-12-07T15:19:43;13.28;59.18
65584;DHT22;62116;43.582;1.470;2022-12-07T15:22:08;13.28;59.67
65584;DHT22;62116;43.582;1.470;2022-12-07T15:24:36;13.27;59.64
65584;DHT22;62116;43.582;1.470;2022-12-07T15:27:01;13.23;59.73
65584;DHT22;62116;43.582;1.470;2022-12-07T15:29:27;13.24;59.65
65584;DHT22;62116;43.582;1.470;2022-12-07T15:31:52;13.20;59.87
65584;DHT22;62116;43.582;1.470;2022-12-07T15:34:18;13.17;60.12
65584;DHT22;62116;43.582;1.470;2022-12-07T15:36:43;13.14;60.36
65584;DHT22;62116;43.582;1.470;2022-12-07T15:39:09;13.13;60.91
65584;DHT22;62116;43.582;1.470;2022-12-07T15:41:35;13.07;60.84
65584;DHT22;62116;43.582;1.470;2022-12-07T15:44:00;13.07;60.71
65584;DHT22;62116;43.582;1.470;2022-12-07T15:46:44;13.03;60.63
65584;DHT22;62116;43.582;1.470;2022-12-07T15:49:16;13.01;60.90
65584;DHT22;62116;43.582;1.470;2022-12-07T15:51:42;12.99;61.12
65584;DHT22;62116;43.582;1.470;2022-12-07T15:54:29;12.93;61.47
65584;DHT22;62116;43.582;1.470;2022-12-07T15:56:55;12.90;61.41
65584;DHT22;62116;43.582;1.470;2022-12-07T15:59:21;12.91;61.11
65584;DHT22;62116;43.582;1.470;2022-12-07T16:01:46;12.87;60.87
65584;DHT22;62116;43.582;1.470;2022-12-07T16:04:12;12.86;61.24
65584;DHT22;62116;43.582;1.470;2022-12-07T16:06:37;12.86;61.49
65584;DHT22;62116;43.582;1.470;2022-12-07T16:09:03;12.80;61.82
65584;DHT22;62116;43.582;1.470;2022-12-07T16:11:29;12.75;62.73
65584;DHT22;62116;43.582;1.470;2022-12-07T16:13:54;12.72;62.51
65584;DHT22;62116;43.582;1.470;2022-12-07T16:16:20;12.69;62.15
65584;DHT22;62116;43.582;1.470;2022-12-07T16:18:48;12.67;62.26
65584;DHT22;62116;43.582;1.470;2022-12-07T16:21:14;12.63;62.37
65584;DHT22;62116;43.582;1.470;2022-12-07T16:23:40;12.57;62.50
65584;DHT22;62116;43.582;1.470;2022-12-07T16:26:10;12.56;62.14
65584;DHT22;62116;43.582;1.470;2022-12-07T16:28:36;12.52;62.42
65584;DHT22;62116;43.582;1.470;2022-12-07T16:31:07;12.43;62.58
65584;DHT22;62116;43.582;1.470;2022-12-07T16:33:36;12.39;63.05
65584;DHT22;62116;43.582;1.470;2022-12-07T16:36:04;12.38;63.07
65584;DHT22;62116;43.582;1.470;2022-12-07T16:38:30;12.35;62.83
65584;DHT22;62116;43.582;1.470;2022-12-07T16:40:55;12.29;63.65
65584;DHT22;62116;43.582;1.470;2022-12-07T16:43:21;12.24;64.38
65584;DHT22;62116;43.582;1.470;2022-12-07T16:45:47;12.21;64.81
65584;DHT22;62116;43.582;1.470;2022-12-07T16:48:17;12.21;64.54
65584;DHT22;62116;43.582;1.470;2022-12-07T16:50:42;12.16;63.90
65584;DHT22;62116;43.582;1.470;2022-12-07T16:53:09;12.14;63.52
65584;DHT22;62116;43.582;1.470;2022-12-07T16:55:40;12.05;63.93
65584;DHT22;62116;43.582;1.470;2022-12-07T16:58:06;12.02;64.53
65584;DHT22;62116;43.582;1.470;2022-12-07T17:00:32;11.96;65.45
65584;DHT22;62116;43.582;1.470;2022-12-07T17:02:58;11.94;65.73
65584;DHT22;62116;43.582;1.470;2022-12-07T17:05:24;11.91;66.01
65584;DHT22;62116;43.582;1.470;2022-12-07T17:07:50;11.86;65.51
65584;DHT22;62116;43.582;1.470;2022-12-07T17:10:16;11.86;65.08
65584;DHT22;62116;43.582;1.470;2022-12-07T17:12:41;11.77;65.52
65584;DHT22;62116;43.582;1.470;2022-12-07T17:15:08;11.75;65.60
65584;DHT22;62116;43.582;1.470;2022-12-07T17:17:58;11.70;66.04
65584;DHT22;62116;43.582;1.470;2022-12-07T17:20:24;11.67;66.03
65584;DHT22;62116;43.582;1.470;2022-12-07T17:22:50;11.62;66.51
65584;DHT22;62116;43.582;1.470;2022-12-07T17:25:16;11.57;67.12
65584;DHT22;62116;43.582;1.470;2022-12-07T17:27:42;11.52;67.55
65584;DHT22;62116;43.582;1.470;2022-12-07T17:30:08;11.52;67.58
65584;DHT22;62116;43.582;1.470;2022-12-07T17:32:34;11.47;67.85
65584;DHT22;62116;43.582;1.470;2022-12-07T17:34:59;11.42;67.82
65584;DHT22;62116;43.582;1.470;2022-12-07T17:37:26;11.38;67.99
65584;DHT22;62116;43.582;1.470;2022-12-07T17:39:52;11.35;67.79
65584;DHT22;62116;43.582;1.470;2022-12-07T17:42:18;11.28;67.74
65584;DHT22;62116;43.582;1.470;2022-12-07T17:45:08;11.20;68.26
65584;DHT22;62116;43.582;1.470;2022-12-07T17:47:38;11.20;67.84
65584;DHT22;62116;43.582;1.470;2022-12-07T17:50:05;11.17;68.24
65584;DHT22;62116;43.582;1.470;2022-12-07T17:52:31;11.13;68.37